createdAt,value
2017-11-24T00:13:50.138Z,26
2017-11-24T00:22:43.154Z,26.1
2017-11-24T00:25:38.156Z,26
2017-11-24T00:28:35.089Z,26
2017-11-24T00:34:29.128Z,26
2017-11-24T00:37:26.092Z,26.1
2017-11-24T00:40:23.227Z,26.1
2017-11-24T00:43:20.062Z,26.1
2017-11-24T00:46:17.195Z,26.1
2017-11-24T00:49:14.080Z,26.1
2017-11-24T00:52:11.145Z,26.1
2017-11-24T01:03:59.159Z,26.2
2017-11-24T01:06:58.053Z,26.2
2017-11-24T01:12:50.111Z,26.3
2017-11-24T01:21:41.090Z,26.4
2017-11-24T01:24:38.052Z,26.5
2017-11-24T01:27:35.176Z,26.6
2017-11-24T01:30:35.164Z,26.6
2017-11-24T01:33:29.175Z,26.6
2017-11-24T01:45:17.192Z,26.7
2017-11-24T01:48:14.068Z,26.7
2017-11-24T01:51:11.173Z,26.6
2017-11-24T01:54:08.098Z,26.7
2017-11-24T01:57:05.258Z,26.8
2017-11-24T02:00:02.133Z,26.8
2017-11-24T02:03:02.185Z,26.9
2017-11-24T02:05:56.081Z,26.9
2017-11-24T02:08:53.252Z,26.9
2017-11-24T02:14:47.432Z,27
2017-11-24T02:17:44.179Z,27
2017-11-24T02:20:41.481Z,27
2017-11-24T02:23:38.137Z,27.1
2017-11-24T02:26:36.245Z,27.1
2017-11-24T02:29:32.257Z,27.2
2017-11-24T02:32:29.253Z,27.3
2017-11-24T02:35:26.216Z,27.4
2017-11-24T02:38:23.334Z,27.5
2017-11-24T02:41:20.100Z,27.6
2017-11-24T02:47:14.309Z,27.7
2017-11-24T02:53:08.264Z,27.8
2017-11-24T02:56:05.236Z,28
2017-11-24T02:59:03.270Z,28
2017-11-24T03:02:00.238Z,28
2017-11-24T03:04:57.301Z,28
2017-11-24T03:07:53.261Z,28.1
2017-11-24T03:10:50.341Z,28.2
2017-11-24T03:13:47.193Z,28.3
2017-11-24T03:16:44.294Z,28.4
2017-11-24T03:19:41.286Z,28.4
2017-11-24T03:22:39.389Z,28.5
2017-11-24T03:25:36.165Z,28.4
2017-11-24T03:28:34.243Z,28.4
2017-11-24T03:31:29.223Z,28.5
2017-11-24T03:34:31.684Z,28.5
2017-11-24T03:37:24.261Z,28.6
2017-11-24T03:43:22.248Z,28.8
2017-11-24T03:49:11.360Z,28.8
2017-11-24T03:52:08.215Z,29
2017-11-24T03:55:05.322Z,29
2017-11-24T04:03:56.288Z,29.2
2017-11-24T04:06:54.263Z,29.3
2017-11-24T04:12:47.247Z,29.5
2017-11-24T04:18:54.541Z,29.6
2017-11-24T04:30:32.433Z,29.6
2017-11-24T04:36:23.343Z,29.8
2017-11-24T04:42:17.432Z,29.9
2017-11-24T04:54:10.232Z,29.9
2017-11-24T05:05:53.255Z,30.1
2017-11-24T05:14:44.402Z,30.4
2017-11-24T05:35:23.348Z,30.1
2017-11-24T05:47:11.272Z,30.2
2017-11-24T05:50:08.262Z,30.4
2017-11-24T05:56:02.299Z,30.3
2017-11-24T05:58:59.270Z,30.4
2017-11-24T06:04:53.347Z,30.3
2017-11-24T06:07:51.585Z,30.4
2017-11-24T06:10:56.346Z,30.2
2017-11-24T06:22:35.393Z,30.3
2017-11-24T06:28:29.604Z,30.3
2017-11-24T06:31:26.220Z,30.2
2017-11-24T06:43:14.442Z,30.6
2017-11-24T06:46:12.287Z,30.6
2017-11-24T06:55:02.629Z,30.6
2017-11-24T07:00:56.332Z,30.7
2017-11-24T07:06:50.414Z,30.8
2017-11-24T07:09:47.255Z,30.8
2017-11-24T07:15:41.617Z,30.8
2017-11-24T07:21:35.371Z,31
2017-11-24T07:27:29.368Z,31
2017-11-24T07:30:26.298Z,31
2017-11-24T07:33:23.315Z,31
2017-11-24T07:36:20.337Z,30.9
2017-11-24T07:42:14.627Z,30.8
2017-11-24T07:48:08.378Z,30.8
2017-11-24T07:51:05.300Z,30.8
2017-11-24T07:54:07.285Z,30.9
2017-11-24T08:02:53.614Z,30.9
2017-11-24T08:05:50.386Z,30.9
2017-11-24T08:08:48.446Z,30.9
2017-11-24T08:11:44.229Z,30.9
2017-11-24T08:14:41.531Z,31
2017-11-24T08:20:35.464Z,30.9
2017-11-24T08:23:42.641Z,30.9
2017-11-24T08:26:34.391Z,30.9
2017-11-24T08:29:27.356Z,30.9
2017-11-24T08:32:23.684Z,30.9
2017-11-24T08:35:21.649Z,30.9
2017-11-24T08:38:17.438Z,30.8
2017-11-24T08:44:12.609Z,30.8
2017-11-24T08:47:08.393Z,30.8
2017-11-24T08:50:05.326Z,30.8
2017-11-24T08:53:02.481Z,30.8
2017-11-24T08:55:59.463Z,30.8
2017-11-24T08:58:56.355Z,30.7
2017-11-24T09:01:53.368Z,30.7
2017-11-24T09:07:47.690Z,30.6
2017-11-24T09:10:44.370Z,30.5
2017-11-24T09:13:41.468Z,30.4
2017-11-24T09:22:32.370Z,30.2
2017-11-24T09:25:29.427Z,30.2
2017-11-24T09:31:23.476Z,30.2
2017-11-24T09:34:20.306Z,30.2
2017-11-24T09:40:14.455Z,30
2017-11-24T09:43:11.376Z,29.9
2017-11-24T09:46:09.806Z,29.8
2017-11-24T09:49:05.413Z,29.7
2017-11-24T09:52:02.375Z,29.7
2017-11-24T09:54:59.326Z,29.6
2017-11-24T09:57:56.375Z,29.6
2017-11-24T10:00:53.355Z,29.5
2017-11-24T10:03:50.347Z,29.4
2017-11-24T10:09:45.383Z,29.3
2017-11-24T10:12:41.333Z,29.3
2017-11-24T10:15:38.399Z,29.3
2017-11-24T10:18:35.323Z,29.2
2017-11-24T10:21:32.522Z,29.2
2017-11-24T10:24:30.871Z,29.2
2017-11-24T10:27:26.406Z,29.2
2017-11-24T10:30:24.328Z,29.2
2017-11-24T10:33:21.496Z,29.2
2017-11-24T10:36:18.337Z,29.1
2017-11-24T10:39:15.422Z,29.1
2017-11-24T10:42:12.440Z,29.1
2017-11-24T10:59:54.411Z,28.9
2017-11-24T11:02:51.328Z,29
2017-11-24T11:05:48.525Z,29
2017-11-24T11:08:45.420Z,28.9
2017-11-24T11:11:42.456Z,28.9
2017-11-24T11:14:39.383Z,28.9
2017-11-24T11:20:34.851Z,28.9
2017-11-24T11:26:27.483Z,28.8
2017-11-24T11:29:24.720Z,28.8
2017-11-24T11:35:18.424Z,28.8
2017-11-24T11:44:09.520Z,28.7
2017-11-24T11:47:06.416Z,28.8
2017-11-24T11:50:03.438Z,28.8
2017-11-24T11:53:00.383Z,28.7
2017-11-24T11:58:54.517Z,28.7
2017-11-24T12:07:45.588Z,28.7
2017-11-24T12:13:39.437Z,28.7
2017-11-24T12:16:36.379Z,28.7
2017-11-24T12:19:33.455Z,28.7
2017-11-24T12:22:30.382Z,28.6
2017-11-24T12:25:27.503Z,28.6
2017-11-24T12:28:24.471Z,28.6
2017-11-24T12:31:21.489Z,28.6
2017-11-24T12:34:18.429Z,28.5
2017-11-24T12:37:15.542Z,28.5
2017-11-24T12:40:12.479Z,28.5
2017-11-24T12:43:09.443Z,28.5
2017-11-24T12:49:03.506Z,28.4
2017-11-24T12:52:01.458Z,28.4
2017-11-24T12:54:57.635Z,28.4
2017-11-24T12:57:55.560Z,28.5
2017-11-24T13:00:52.704Z,28.4
2017-11-24T13:06:45.685Z,28.4
2017-11-24T13:09:42.464Z,28.4
2017-11-24T13:12:44.560Z,28.4
2017-11-24T13:18:34.566Z,28.4
2017-11-24T13:21:35.520Z,28.2
2017-11-24T13:36:15.691Z,28
2017-11-24T13:51:00.616Z,27.8
2017-11-24T13:56:56.540Z,27.8
2017-11-24T13:59:51.534Z,27.7
2017-11-24T14:05:45.786Z,27.7
2017-11-24T14:08:43.523Z,27.7
2017-11-24T14:11:39.568Z,27.7
2017-11-24T14:14:38.579Z,27.6
2017-11-24T14:17:38.525Z,27.6
2017-11-24T14:20:30.818Z,27.6
2017-11-24T14:23:27.484Z,27.6
2017-11-24T14:26:25.489Z,27.6
2017-11-24T14:38:12.587Z,27.5
2017-11-24T14:41:09.493Z,27.5
2017-11-24T14:47:03.536Z,27.4
2017-11-24T14:50:00.458Z,27.5
2017-11-24T14:55:54.645Z,27.5
2017-11-24T14:58:51.496Z,27.5
2017-11-24T15:01:49.639Z,27.5
2017-11-24T15:04:45.471Z,27.5
2017-11-24T15:07:42.606Z,27.5
2017-11-24T15:13:36.612Z,27.5
2017-11-24T15:16:33.442Z,27.5
2017-11-24T15:19:30.566Z,27.5
2017-11-24T15:22:27.515Z,27.5
2017-11-24T15:28:21.569Z,27.5
2017-11-24T15:31:18.523Z,27.5
2017-11-24T15:34:15.600Z,27.5
2017-11-24T15:37:12.566Z,27.4
2017-11-24T15:40:09.658Z,27.5
2017-11-24T15:43:07.577Z,27.4
2017-11-24T15:46:03.572Z,27.4
2017-11-24T15:49:00.581Z,27.4
2017-11-24T15:51:57.619Z,27.4
2017-11-24T15:54:56.522Z,27.4
2017-11-24T16:00:48.578Z,27.4
2017-11-24T16:06:42.563Z,27.3
2017-11-24T16:09:39.483Z,27.3
2017-11-24T16:12:36.616Z,27.3
2017-11-24T16:15:33.502Z,27.3
2017-11-24T16:18:30.638Z,27.3
2017-11-24T16:21:27.489Z,27.3
2017-11-24T16:24:24.644Z,27.3
2017-11-24T16:27:21.531Z,27.3
2017-11-24T16:30:18.604Z,27.3
2017-11-24T16:33:15.510Z,27.2
2017-11-24T16:36:12.551Z,27.2
2017-11-24T16:45:03.705Z,27.2
2017-11-24T16:48:00.581Z,27.2
2017-11-24T16:50:57.582Z,27.2
2017-11-24T16:53:54.498Z,27.2
2017-11-24T16:56:51.614Z,27.2
2017-11-24T16:59:48.567Z,27.1
2017-11-24T17:05:42.650Z,27.1
2017-11-24T17:08:39.507Z,27.1
2017-11-24T17:11:36.643Z,27.1
2017-11-24T17:17:30.742Z,27.1
2017-11-24T17:20:27.580Z,27.1
2017-11-24T17:23:24.585Z,27.1
2017-11-24T17:29:18.724Z,27
2017-11-24T17:32:15.525Z,27
2017-11-24T17:35:12.654Z,27.1
2017-11-24T17:38:09.572Z,27
2017-11-24T17:41:07.648Z,27
2017-11-24T17:44:03.564Z,27
2017-11-24T17:47:00.807Z,27
2017-11-24T17:49:57.578Z,27
2017-11-24T17:52:54.612Z,27
2017-11-24T17:55:51.676Z,27
2017-11-24T17:58:48.581Z,27
2017-11-24T18:01:45.520Z,27
2017-11-24T18:04:42.580Z,26.9
2017-11-24T18:07:39.536Z,26.9
2017-11-24T18:10:36.668Z,26.9
2017-11-24T18:16:31.582Z,26.9
2017-11-24T18:19:27.588Z,26.9
2017-11-24T18:22:24.596Z,26.9
2017-11-24T18:25:21.536Z,26.9
2017-11-24T18:28:18.669Z,26.9
2017-11-24T18:31:15.513Z,26.9
2017-11-24T18:34:13.614Z,26.9
2017-11-24T18:37:09.669Z,26.9
2017-11-24T18:40:06.742Z,26.9
2017-11-24T18:46:00.653Z,26.9
2017-11-24T18:48:57.548Z,26.9
2017-11-24T18:51:54.649Z,26.8
2017-11-24T18:54:51.585Z,26.9
2017-11-24T18:57:48.700Z,26.8
2017-11-24T19:00:45.589Z,26.8
2017-11-24T19:03:42.668Z,26.8
2017-11-24T19:06:39.670Z,26.8
2017-11-24T19:09:36.665Z,26.8
2017-11-24T19:12:33.605Z,26.7
2017-11-24T19:15:30.669Z,26.8
2017-11-24T19:18:27.571Z,26.7
2017-11-24T19:21:24.656Z,26.7
2017-11-24T19:24:21.612Z,26.7
2017-11-24T19:30:15.675Z,26.7
2017-11-24T19:36:09.833Z,26.6
2017-11-24T19:39:06.613Z,26.6
2017-11-24T19:42:03.630Z,26.6
2017-11-24T19:45:00.583Z,26.6
2017-11-24T19:47:57.681Z,26.5
2017-11-24T19:50:54.622Z,26.5
2017-11-24T19:53:51.710Z,26.6
2017-11-24T19:59:45.689Z,26.5
2017-11-24T20:02:42.591Z,26.5
2017-11-24T20:05:39.634Z,26.5
2017-11-24T20:11:33.729Z,26.4
2017-11-24T20:14:30.579Z,26.4
2017-11-24T20:17:27.881Z,26.4
2017-11-24T20:20:24.576Z,26.4
2017-11-24T20:23:21.700Z,26.4
2017-11-24T20:26:18.623Z,26.4
2017-11-24T20:32:12.675Z,26.3
2017-11-24T20:35:09.627Z,26.3
2017-11-24T20:41:03.825Z,26.3
2017-11-24T20:44:00.658Z,26.3
2017-11-24T20:46:57.719Z,26.2
2017-11-24T20:49:54.591Z,26.2
2017-11-24T20:52:51.779Z,26.2
2017-11-24T20:55:49.628Z,26.2
2017-11-24T20:58:45.657Z,26.2
2017-11-24T21:04:39.710Z,26.1
2017-11-24T21:07:36.692Z,26.1
2017-11-24T21:10:33.697Z,26.1
2017-11-24T21:13:31.699Z,26
2017-11-24T21:16:29.768Z,26
2017-11-24T21:19:24.635Z,26
2017-11-24T21:22:21.754Z,26
2017-11-24T21:25:18.647Z,26
2017-11-24T21:28:15.662Z,26
2017-11-24T21:34:09.691Z,25.9
2017-11-24T21:37:06.729Z,25.9
2017-11-24T21:40:03.744Z,25.8
2017-11-24T21:43:00.679Z,25.8
2017-11-24T21:48:57.732Z,25.7
2017-11-24T21:51:51.618Z,25.7
2017-11-24T21:54:49.710Z,25.7
2017-11-24T21:57:45.688Z,25.6
2017-11-24T22:00:42.725Z,25.6
2017-11-24T22:06:36.768Z,25.6
2017-11-24T22:09:33.611Z,25.6
2017-11-24T22:12:30.794Z,25.6
2017-11-24T22:15:28.665Z,25.6
2017-11-24T22:18:24.713Z,25.6
2017-11-24T22:24:18.831Z,25.5
2017-11-24T22:27:15.691Z,25.5
2017-11-24T22:33:09.727Z,25.5
2017-11-24T22:36:06.673Z,25.4
2017-11-24T22:39:03.727Z,25.4
2017-11-24T22:44:57.773Z,25.4
2017-11-24T22:47:54.662Z,25.4
2017-11-24T22:50:51.807Z,25.3
2017-11-24T22:56:45.785Z,25.3
2017-11-24T22:59:42.689Z,25.3
2017-11-24T23:02:40.779Z,25.2
2017-11-24T23:05:36.720Z,25.2
2017-11-24T23:14:28.765Z,25.2
2017-11-24T23:17:24.654Z,25.2
2017-11-24T23:20:21.728Z,25.2
2017-11-24T23:23:18.691Z,25.2
2017-11-24T23:26:15.939Z,25.2
2017-11-24T23:29:12.696Z,25.2
2017-11-24T23:32:09.719Z,25.2
2017-11-24T23:35:06.739Z,25.2
2017-11-24T23:38:03.808Z,25.2
2017-11-24T23:43:58.560Z,25.2
2017-11-24T23:46:54.662Z,25.2
2017-11-24T23:49:51.736Z,25.2
2017-11-24T23:52:48.682Z,25.1
2017-11-24T23:55:45.816Z,25.1
2017-11-24T23:58:42.674Z,25.1
